sensor_id;sensor_type;location;lat;lon;timestamp;P1;durP1;ratioP1;P2;durP2;ratioP2
29352;SDS011;16344;50.364;8.944;2023-03-01T00:00:12;28.98;;;14.50;;
29352;SDS011;16344;50.364;8.944;2023-03-01T00:02:38;28.00;;;13.52;;
29352;SDS011;16344;50.364;8.944;2023-03-01T00:05:03;27.58;;;14.15;;
29352;SDS011;16344;50.364;8.944;2023-03-01T00:07:29;30.55;;;15.90;;
29352;SDS011;16344;50.364;8.944;2023-03-01T00:09:55;31.92;;;13.65;;
29352;SDS011;16344;50.364;8.944;2023-03-01T00:12:20;34.45;;;13.95;;
29352;SDS011;16344;50.364;8.944;2023-03-01T00:14:46;36.33;;;16.17;;
29352;SDS011;16344;50.364;8.944;2023-03-01T00:17:11;34.95;;;14.80;;
29352;SDS011;16344;50.364;8.944;2023-03-01T00:19:37;31.65;;;15.25;;
29352;SDS011;16344;50.364;8.944;2023-03-01T00:22:02;30.75;;;14.65;;
29352;SDS011;16344;50.364;8.944;2023-03-01T00:24:28;28.13;;;14.15;;
29352;SDS011;16344;50.364;8.944;2023-03-01T00:26:54;29.73;;;14.68;;
29352;SDS011;16344;50.364;8.944;2023-03-01T00:29:21;25.80;;;13.32;;
29352;SDS011;16344;50.364;8.944;2023-03-01T00:31:47;28.98;;;13.80;;
29352;SDS011;16344;50.364;8.944;2023-03-01T00:34:13;30.60;;;15.32;;
29352;SDS011;16344;50.364;8.944;2023-03-01T00:36:38;30.73;;;14.02;;
29352;SDS011;16344;50.364;8.944;2023-03-01T00:39:05;28.52;;;14.70;;
29352;SDS011;16344;50.364;8.944;2023-03-01T00:41:34;34.60;;;14.90;;
29352;SDS011;16344;50.364;8.944;2023-03-01T00:44:00;26.65;;;13.75;;
29352;SDS011;16344;50.364;8.944;2023-03-01T00:46:26;31.10;;;14.85;;
29352;SDS011;16344;50.364;8.944;2023-03-01T00:48:52;30.92;;;14.10;;
29352;SDS011;16344;50.364;8.944;2023-03-01T00:51:20;34.17;;;14.95;;
29352;SDS011;16344;50.364;8.944;2023-03-01T00:53:49;29.52;;;13.55;;
29352;SDS011;16344;50.364;8.944;2023-03-01T00:56:15;29.65;;;14.43;;
29352;SDS011;16344;50.364;8.944;2023-03-01T00:58:41;29.92;;;14.07;;
29352;SDS011;16344;50.364;8.944;2023-03-01T01:01:08;27.42;;;13.60;;
29352;SDS011;16344;50.364;8.944;2023-03-01T01:03:54;31.75;;;14.52;;
29352;SDS011;16344;50.364;8.944;2023-03-01T01:06:25;31.77;;;15.20;;
29352;SDS011;16344;50.364;8.944;2023-03-01T01:08:53;30.27;;;14.38;;
29352;SDS011;16344;50.364;8.944;2023-03-01T01:11:20;29.65;;;14.38;;
29352;SDS011;16344;50.364;8.944;2023-03-01T01:13:46;30.80;;;15.15;;
29352;SDS011;16344;50.364;8.944;2023-03-01T01:16:13;35.63;;;15.18;;
29352;SDS011;16344;50.364;8.944;2023-03-01T01:18:39;39.03;;;15.57;;
29352;SDS011;16344;50.364;8.944;2023-03-01T01:21:06;29.02;;;14.10;;
29352;SDS011;16344;50.364;8.944;2023-03-01T01:23:33;28.38;;;13.73;;
29352;SDS011;16344;50.364;8.944;2023-03-01T01:26:42;32.72;;;15.00;;
29352;SDS011;16344;50.364;8.944;2023-03-01T01:28:49;29.95;;;14.45;;
29352;SDS011;16344;50.364;8.944;2023-03-01T01:31:16;33.08;;;15.50;;
29352;SDS011;16344;50.364;8.944;2023-03-01T01:33:42;32.13;;;16.02;;
29352;SDS011;16344;50.364;8.944;2023-03-01T01:36:08;37.05;;;16.50;;
29352;SDS011;16344;50.364;8.944;2023-03-01T01:38:34;36.75;;;15.13;;
29352;SDS011;16344;50.364;8.944;2023-03-01T01:41:02;35.67;;;14.98;;
29352;SDS011;16344;50.364;8.944;2023-03-01T01:43:30;36.15;;;15.75;;
29352;SDS011;16344;50.364;8.944;2023-03-01T01:46:01;36.45;;;15.93;;
29352;SDS011;16344;50.364;8.944;2023-03-01T01:48:55;38.22;;;16.48;;
29352;SDS011;16344;50.364;8.944;2023-03-01T01:51:25;36.92;;;15.80;;
29352;SDS011;16344;50.364;8.944;2023-03-01T01:54:03;36.75;;;16.85;;
29352;SDS011;16344;50.364;8.944;2023-03-01T01:56:42;32.63;;;15.57;;
29352;SDS011;16344;50.364;8.944;2023-03-01T01:59:11;30.67;;;15.45;;
29352;SDS011;16344;50.364;8.944;2023-03-01T02:01:37;36.60;;;16.15;;
29352;SDS011;16344;50.364;8.944;2023-03-01T02:04:03;33.67;;;15.20;;
29352;SDS011;16344;50.364;8.944;2023-03-01T02:06:32;32.17;;;15.25;;
29352;SDS011;16344;50.364;8.944;2023-03-01T02:09:03;35.15;;;16.35;;
29352;SDS011;16344;50.364;8.944;2023-03-01T02:11:37;37.85;;;16.83;;
29352;SDS011;16344;50.364;8.944;2023-03-01T02:14:03;42.50;;;15.05;;
29352;SDS011;16344;50.364;8.944;2023-03-01T02:16:29;37.03;;;17.83;;
29352;SDS011;16344;50.364;8.944;2023-03-01T02:18:55;46.58;;;17.70;;
29352;SDS011;16344;50.364;8.944;2023-03-01T02:21:35;39.42;;;17.65;;
29352;SDS011;16344;50.364;8.944;2023-03-01T02:27:05;35.08;;;16.10;;
29352;SDS011;16344;50.364;8.944;2023-03-01T02:29:31;39.60;;;18.30;;
29352;SDS011;16344;50.364;8.944;2023-03-01T02:31:58;37.72;;;17.02;;
29352;SDS011;16344;50.364;8.944;2023-03-01T02:34:26;36.60;;;18.05;;
29352;SDS011;16344;50.364;8.944;2023-03-01T02:36:59;47.40;;;18.85;;
29352;SDS011;16344;50.364;8.944;2023-03-01T02:39:34;36.72;;;17.55;;
29352;SDS011;16344;50.364;8.944;2023-03-01T02:42:07;29.77;;;16.35;;
29352;SDS011;16344;50.364;8.944;2023-03-01T02:44:37;39.65;;;18.60;;
29352;SDS011;16344;50.364;8.944;2023-03-01T02:47:03;42.08;;;19.35;;
29352;SDS011;16344;50.364;8.944;2023-03-01T02:49:30;35.80;;;17.55;;
29352;SDS011;16344;50.364;8.944;2023-03-01T02:54:48;39.28;;;18.85;;
29352;SDS011;16344;50.364;8.944;2023-03-01T02:57:35;39.70;;;18.60;;
29352;SDS011;16344;50.364;8.944;2023-03-01T03:00:06;39.67;;;18.27;;
29352;SDS011;16344;50.364;8.944;2023-03-01T03:02:34;51.33;;;17.33;;
29352;SDS011;16344;50.364;8.944;2023-03-01T03:05:02;37.90;;;16.52;;
29352;SDS011;16344;50.364;8.944;2023-03-01T03:07:36;38.40;;;18.27;;
29352;SDS011;16344;50.364;8.944;2023-03-01T03:10:04;39.50;;;18.13;;
29352;SDS011;16344;50.364;8.944;2023-03-01T03:12:31;42.85;;;18.25;;
29352;SDS011;16344;50.364;8.944;2023-03-01T03:14:57;42.13;;;18.23;;
29352;SDS011;16344;50.364;8.944;2023-03-01T03:17:22;46.38;;;18.05;;
29352;SDS011;16344;50.364;8.944;2023-03-01T03:19:48;37.97;;;17.52;;
29352;SDS011;16344;50.364;8.944;2023-03-01T03:22:13;44.20;;;17.10;;
29352;SDS011;16344;50.364;8.944;2023-03-01T03:24:39;44.85;;;19.00;;
29352;SDS011;16344;50.364;8.944;2023-03-01T03:27:05;43.25;;;17.17;;
29352;SDS011;16344;50.364;8.944;2023-03-01T03:29:31;39.50;;;19.08;;
29352;SDS011;16344;50.364;8.944;2023-03-01T03:31:57;39.88;;;16.80;;
29352;SDS011;16344;50.364;8.944;2023-03-01T03:34:23;43.05;;;18.33;;
29352;SDS011;16344;50.364;8.944;2023-03-01T03:36:52;48.03;;;18.20;;
29352;SDS011;16344;50.364;8.944;2023-03-01T03:39:24;43.75;;;17.75;;
29352;SDS011;16344;50.364;8.944;2023-03-01T03:41:50;41.85;;;18.23;;
29352;SDS011;16344;50.364;8.944;2023-03-01T03:44:16;39.28;;;19.52;;
29352;SDS011;16344;50.364;8.944;2023-03-01T03:46:41;41.25;;;17.13;;
29352;SDS011;16344;50.364;8.944;2023-03-01T03:49:07;38.78;;;17.52;;
29352;SDS011;16344;50.364;8.944;2023-03-01T03:51:32;37.40;;;16.95;;
29352;SDS011;16344;50.364;8.944;2023-03-01T03:53:58;39.95;;;18.67;;
29352;SDS011;16344;50.364;8.944;2023-03-01T03:56:23;42.72;;;18.40;;
29352;SDS011;16344;50.364;8.944;2023-03-01T03:58:51;36.72;;;18.13;;
29352;SDS011;16344;50.364;8.944;2023-03-01T04:01:17;47.83;;;18.83;;
29352;SDS011;16344;50.364;8.944;2023-03-01T04:03:43;38.63;;;18.20;;
29352;SDS011;16344;50.364;8.944;2023-03-01T04:06:11;39.60;;;17.60;;
29352;SDS011;16344;50.364;8.944;2023-03-01T04:08:38;38.53;;;18.15;;
29352;SDS011;16344;50.364;8.944;2023-03-01T04:11:04;40.00;;;18.15;;
29352;SDS011;16344;50.364;8.944;2023-03-01T04:13:49;43.08;;;18.27;;
29352;SDS011;16344;50.364;8.944;2023-03-01T04:16:16;49.80;;;18.92;;
29352;SDS011;16344;50.364;8.944;2023-03-01T04:18:42;40.53;;;16.88;;
29352;SDS011;16344;50.364;8.944;2023-03-01T04:21:08;41.75;;;18.88;;
29352;SDS011;16344;50.364;8.944;2023-03-01T04:23:35;39.25;;;17.60;;
29352;SDS011;16344;50.364;8.944;2023-03-01T04:26:00;45.67;;;17.23;;
29352;SDS011;16344;50.364;8.944;2023-03-01T04:28:33;38.97;;;18.23;;
29352;SDS011;16344;50.364;8.944;2023-03-01T04:31:08;39.00;;;16.55;;
29352;SDS011;16344;50.364;8.944;2023-03-01T04:33:40;38.63;;;18.25;;
29352;SDS011;16344;50.364;8.944;2023-03-01T04:36:17;40.38;;;17.10;;
29352;SDS011;16344;50.364;8.944;2023-03-01T04:38:44;46.95;;;17.58;;
29352;SDS011;16344;50.364;8.944;2023-03-01T04:41:12;49.58;;;18.02;;
29352;SDS011;16344;50.364;8.944;2023-03-01T04:43:39;40.65;;;16.80;;
29352;SDS011;16344;50.364;8.944;2023-03-01T04:46:06;37.47;;;19.48;;
29352;SDS011;16344;50.364;8.944;2023-03-01T04:48:34;39.67;;;17.08;;
29352;SDS011;16344;50.364;8.944;2023-03-01T04:51:01;37.08;;;18.00;;
29352;SDS011;16344;50.364;8.944;2023-03-01T04:53:27;36.75;;;17.60;;
29352;SDS011;16344;50.364;8.944;2023-03-01T04:55:54;41.35;;;17.00;;
29352;SDS011;16344;50.364;8.944;2023-03-01T04:58:22;44.20;;;17.25;;
29352;SDS011;16344;50.364;8.944;2023-03-01T05:00:49;40.60;;;17.88;;
29352;SDS011;16344;50.364;8.944;2023-03-01T05:03:14;43.95;;;18.23;;
29352;SDS011;16344;50.364;8.944;2023-03-01T05:05:43;36.80;;;16.63;;
29352;SDS011;16344;50.364;8.944;2023-03-01T05:08:10;41.55;;;18.73;;
29352;SDS011;16344;50.364;8.944;2023-03-01T05:10:42;40.35;;;16.42;;
29352;SDS011;16344;50.364;8.944;2023-03-01T05:13:10;37.80;;;18.30;;
29352;SDS011;16344;50.364;8.944;2023-03-01T05:15:38;40.75;;;17.20;;
29352;SDS011;16344;50.364;8.944;2023-03-01T05:18:04;41.10;;;18.05;;
29352;SDS011;16344;50.364;8.944;2023-03-01T05:20:36;39.25;;;17.98;;
29352;SDS011;16344;50.364;8.944;2023-03-01T05:23:02;36.53;;;16.33;;
29352;SDS011;16344;50.364;8.944;2023-03-01T05:25:30;39.72;;;16.13;;
29352;SDS011;16344;50.364;8.944;2023-03-01T05:27:58;31.88;;;15.30;;
29352;SDS011;16344;50.364;8.944;2023-03-01T05:30:24;43.33;;;18.50;;
29352;SDS011;16344;50.364;8.944;2023-03-01T05:32:50;51.08;;;18.40;;
29352;SDS011;16344;50.364;8.944;2023-03-01T05:35:20;40.10;;;17.27;;
29352;SDS011;16344;50.364;8.944;2023-03-01T05:37:47;43.72;;;17.38;;
29352;SDS011;16344;50.364;8.944;2023-03-01T05:40:15;35.05;;;16.23;;
29352;SDS011;16344;50.364;8.944;2023-03-01T05:42:52;37.28;;;16.85;;
29352;SDS011;16344;50.364;8.944;2023-03-01T05:45:19;36.00;;;17.23;;
29352;SDS011;16344;50.364;8.944;2023-03-01T05:47:46;38.45;;;16.80;;
29352;SDS011;16344;50.364;8.944;2023-03-01T05:52:39;35.95;;;15.98;;
29352;SDS011;16344;50.364;8.944;2023-03-01T05:55:05;46.30;;;18.85;;
29352;SDS011;16344;50.364;8.944;2023-03-01T05:57:31;41.45;;;17.67;;
29352;SDS011;16344;50.364;8.944;2023-03-01T05:59:56;40.80;;;17.50;;
29352;SDS011;16344;50.364;8.944;2023-03-01T06:02:22;44.42;;;18.52;;
29352;SDS011;16344;50.364;8.944;2023-03-01T06:04:48;43.55;;;17.25;;
29352;SDS011;16344;50.364;8.944;2023-03-01T06:07:13;38.92;;;16.50;;
29352;SDS011;16344;50.364;8.944;2023-03-01T06:09:39;40.55;;;17.05;;
29352;SDS011;16344;50.364;8.944;2023-03-01T06:12:04;41.60;;;17.70;;
29352;SDS011;16344;50.364;8.944;2023-03-01T06:14:30;42.83;;;18.10;;
29352;SDS011;16344;50.364;8.944;2023-03-01T06:16:55;42.90;;;16.50;;
29352;SDS011;16344;50.364;8.944;2023-03-01T06:19:21;40.85;;;17.67;;
29352;SDS011;16344;50.364;8.944;2023-03-01T06:21:46;39.03;;;16.02;;
29352;SDS011;16344;50.364;8.944;2023-03-01T06:24:12;38.45;;;16.73;;
29352;SDS011;16344;50.364;8.944;2023-03-01T06:26:37;37.13;;;16.73;;
29352;SDS011;16344;50.364;8.944;2023-03-01T06:29:03;37.50;;;18.00;;
29352;SDS011;16344;50.364;8.944;2023-03-01T06:31:28;47.53;;;17.40;;
29352;SDS011;16344;50.364;8.944;2023-03-01T06:33:54;38.63;;;17.58;;
29352;SDS011;16344;50.364;8.944;2023-03-01T06:36:19;36.25;;;17.05;;
29352;SDS011;16344;50.364;8.944;2023-03-01T06:38:46;34.25;;;16.30;;
29352;SDS011;16344;50.364;8.944;2023-03-01T06:41:12;37.17;;;16.88;;
29352;SDS011;16344;50.364;8.944;2023-03-01T06:43:37;37.85;;;17.08;;
29352;SDS011;16344;50.364;8.944;2023-03-01T06:46:04;43.53;;;18.27;;
29352;SDS011;16344;50.364;8.944;2023-03-01T06:48:31;44.35;;;17.55;;
29352;SDS011;16344;50.364;8.944;2023-03-01T06:50:58;43.92;;;17.85;;
29352;SDS011;16344;50.364;8.944;2023-03-01T06:53:25;45.35;;;18.70;;
29352;SDS011;16344;50.364;8.944;2023-03-01T06:55:58;47.25;;;17.70;;
29352;SDS011;16344;50.364;8.944;2023-03-01T06:58:25;45.88;;;19.38;;
29352;SDS011;16344;50.364;8.944;2023-03-01T07:00:50;46.65;;;18.58;;
29352;SDS011;16344;50.364;8.944;2023-03-01T07:03:16;37.35;;;16.85;;
29352;SDS011;16344;50.364;8.944;2023-03-01T07:05:42;45.15;;;18.48;;
29352;SDS011;16344;50.364;8.944;2023-03-01T07:08:07;37.25;;;16.83;;
29352;SDS011;16344;50.364;8.944;2023-03-01T07:10:33;35.25;;;15.77;;
29352;SDS011;16344;50.364;8.944;2023-03-01T07:12:58;34.60;;;16.17;;
29352;SDS011;16344;50.364;8.944;2023-03-01T07:15:25;33.97;;;16.60;;
29352;SDS011;16344;50.364;8.944;2023-03-01T07:17:51;36.05;;;16.55;;
29352;SDS011;16344;50.364;8.944;2023-03-01T07:20:17;41.55;;;16.85;;
29352;SDS011;16344;50.364;8.944;2023-03-01T07:22:44;34.05;;;15.43;;
29352;SDS011;16344;50.364;8.944;2023-03-01T07:25:10;34.08;;;16.33;;
29352;SDS011;16344;50.364;8.944;2023-03-01T07:27:35;39.08;;;18.38;;
29352;SDS011;16344;50.364;8.944;2023-03-01T07:30:01;34.55;;;16.98;;
29352;SDS011;16344;50.364;8.944;2023-03-01T07:32:28;39.20;;;17.13;;
29352;SDS011;16344;50.364;8.944;2023-03-01T07:34:53;36.00;;;16.63;;
29352;SDS011;16344;50.364;8.944;2023-03-01T07:37:19;47.28;;;17.63;;
29352;SDS011;16344;50.364;8.944;2023-03-01T07:39:44;40.80;;;18.98;;
29352;SDS011;16344;50.364;8.944;2023-03-01T07:42:10;48.15;;;19.65;;
29352;SDS011;16344;50.364;8.944;2023-03-01T07:44:36;39.80;;;19.08;;
29352;SDS011;16344;50.364;8.944;2023-03-01T07:47:02;38.83;;;17.40;;
29352;SDS011;16344;50.364;8.944;2023-03-01T07:49:28;43.08;;;19.40;;
29352;SDS011;16344;50.364;8.944;2023-03-01T07:51:54;41.70;;;19.25;;
29352;SDS011;16344;50.364;8.944;2023-03-01T07:54:19;39.72;;;18.50;;
29352;SDS011;16344;50.364;8.944;2023-03-01T07:56:45;34.65;;;16.95;;
29352;SDS011;16344;50.364;8.944;2023-03-01T07:59:11;36.25;;;17.10;;
29352;SDS011;16344;50.364;8.944;2023-03-01T08:01:37;34.45;;;19.30;;
29352;SDS011;16344;50.364;8.944;2023-03-01T08:04:04;47.03;;;18.98;;
29352;SDS011;16344;50.364;8.944;2023-03-01T08:06:33;36.58;;;18.60;;
29352;SDS011;16344;50.364;8.944;2023-03-01T08:09:00;33.08;;;17.13;;
29352;SDS011;16344;50.364;8.944;2023-03-01T08:11:26;40.83;;;18.92;;
29352;SDS011;16344;50.364;8.944;2023-03-01T08:13:55;40.58;;;19.08;;
29352;SDS011;16344;50.364;8.944;2023-03-01T08:16:21;40.58;;;19.00;;
29352;SDS011;16344;50.364;8.944;2023-03-01T08:18:49;47.72;;;19.48;;
29352;SDS011;16344;50.364;8.944;2023-03-01T08:21:16;48.50;;;18.88;;
29352;SDS011;16344;50.364;8.944;2023-03-01T08:23:43;45.90;;;18.75;;
29352;SDS011;16344;50.364;8.944;2023-03-01T08:26:12;36.47;;;18.73;;
29352;SDS011;16344;50.364;8.944;2023-03-01T08:28:40;35.95;;;18.23;;
29352;SDS011;16344;50.364;8.944;2023-03-01T08:31:17;38.85;;;19.00;;
29352;SDS011;16344;50.364;8.944;2023-03-01T08:33:45;36.63;;;15.98;;
29352;SDS011;16344;50.364;8.944;2023-03-01T08:36:19;40.28;;;19.05;;
29352;SDS011;16344;50.364;8.944;2023-03-01T08:38:46;38.90;;;17.70;;
29352;SDS011;16344;50.364;8.944;2023-03-01T08:41:12;50.10;;;19.13;;
29352;SDS011;16344;50.364;8.944;2023-03-01T08:43:38;37.08;;;19.08;;
29352;SDS011;16344;50.364;8.944;2023-03-01T08:46:03;37.05;;;17.17;;
29352;SDS011;16344;50.364;8.944;2023-03-01T08:48:29;37.92;;;16.75;;
29352;SDS011;16344;50.364;8.944;2023-03-01T08:50:55;36.55;;;16.45;;
29352;SDS011;16344;50.364;8.944;2023-03-01T08:53:21;45.05;;;18.83;;
29352;SDS011;16344;50.364;8.944;2023-03-01T08:55:47;41.75;;;17.10;;
29352;SDS011;16344;50.364;8.944;2023-03-01T08:58:12;40.45;;;18.02;;
29352;SDS011;16344;50.364;8.944;2023-03-01T09:00:38;42.33;;;17.67;;
29352;SDS011;16344;50.364;8.944;2023-03-01T09:03:06;44.58;;;18.05;;
29352;SDS011;16344;50.364;8.944;2023-03-01T09:05:32;31.48;;;16.15;;
29352;SDS011;16344;50.364;8.944;2023-03-01T09:07:59;45.80;;;17.17;;
29352;SDS011;16344;50.364;8.944;2023-03-01T09:10:24;38.20;;;18.23;;
29352;SDS011;16344;50.364;8.944;2023-03-01T09:12:50;35.13;;;17.15;;
29352;SDS011;16344;50.364;8.944;2023-03-01T09:15:16;40.75;;;17.35;;
29352;SDS011;16344;50.364;8.944;2023-03-01T09:17:42;42.90;;;17.10;;
29352;SDS011;16344;50.364;8.944;2023-03-01T09:20:07;42.25;;;18.05;;
29352;SDS011;16344;50.364;8.944;2023-03-01T09:22:33;37.63;;;16.70;;
29352;SDS011;16344;50.364;8.944;2023-03-01T09:25:00;40.15;;;18.55;;
29352;SDS011;16344;50.364;8.944;2023-03-01T09:27:25;39.45;;;17.85;;
29352;SDS011;16344;50.364;8.944;2023-03-01T09:29:51;38.85;;;17.05;;
29352;SDS011;16344;50.364;8.944;2023-03-01T09:32:18;44.55;;;18.13;;
29352;SDS011;16344;50.364;8.944;2023-03-01T09:34:43;35.17;;;17.27;;
29352;SDS011;16344;50.364;8.944;2023-03-01T09:37:31;34.40;;;14.65;;
29352;SDS011;16344;50.364;8.944;2023-03-01T09:39:58;40.47;;;17.27;;
29352;SDS011;16344;50.364;8.944;2023-03-01T09:42:24;37.97;;;15.60;;
29352;SDS011;16344;50.364;8.944;2023-03-01T09:47:34;37.47;;;16.33;;
29352;SDS011;16344;50.364;8.944;2023-03-01T09:52:55;33.88;;;15.65;;
29352;SDS011;16344;50.364;8.944;2023-03-01T09:55:30;32.53;;;17.10;;
29352;SDS011;16344;50.364;8.944;2023-03-01T09:57:59;40.25;;;17.27;;
29352;SDS011;16344;50.364;8.944;2023-03-01T10:03:07;31.42;;;17.10;;
29352;SDS011;16344;50.364;8.944;2023-03-01T10:08:40;31.20;;;15.95;;
29352;SDS011;16344;50.364;8.944;2023-03-01T10:11:57;33.28;;;14.73;;
29352;SDS011;16344;50.364;8.944;2023-03-01T10:17:24;34.70;;;14.55;;
29352;SDS011;16344;50.364;8.944;2023-03-01T10:19:55;33.88;;;14.00;;
29352;SDS011;16344;50.364;8.944;2023-03-01T10:22:35;30.45;;;14.35;;
29352;SDS011;16344;50.364;8.944;2023-03-01T10:25:02;28.08;;;13.82;;
29352;SDS011;16344;50.364;8.944;2023-03-01T10:27:29;32.80;;;15.88;;
29352;SDS011;16344;50.364;8.944;2023-03-01T10:33:01;32.88;;;14.80;;
29352;SDS011;16344;50.364;8.944;2023-03-01T10:35:29;29.02;;;15.30;;
29352;SDS011;16344;50.364;8.944;2023-03-01T10:40:23;62.53;;;22.75;;
29352;SDS011;16344;50.364;8.944;2023-03-01T10:42:49;37.88;;;17.17;;
29352;SDS011;16344;50.364;8.944;2023-03-01T10:47:40;28.60;;;14.10;;
29352;SDS011;16344;50.364;8.944;2023-03-01T10:50:17;38.08;;;15.00;;
29352;SDS011;16344;50.364;8.944;2023-03-01T10:52:55;31.02;;;14.30;;
29352;SDS011;16344;50.364;8.944;2023-03-01T10:55:39;29.55;;;13.93;;
29352;SDS011;16344;50.364;8.944;2023-03-01T11:00:55;24.33;;;12.80;;
29352;SDS011;16344;50.364;8.944;2023-03-01T11:03:25;29.38;;;14.70;;
29352;SDS011;16344;50.364;8.944;2023-03-01T11:05:53;35.85;;;13.13;;
29352;SDS011;16344;50.364;8.944;2023-03-01T11:08:30;28.20;;;14.75;;
29352;SDS011;16344;50.364;8.944;2023-03-01T11:13:34;26.70;;;12.85;;
29352;SDS011;16344;50.364;8.944;2023-03-01T11:16:05;35.05;;;13.93;;
29352;SDS011;16344;50.364;8.944;2023-03-01T11:18:34;28.73;;;13.15;;
29352;SDS011;16344;50.364;8.944;2023-03-01T11:21:00;36.28;;;13.65;;
29352;SDS011;16344;50.364;8.944;2023-03-01T11:23:27;24.92;;;13.60;;
29352;SDS011;16344;50.364;8.944;2023-03-01T11:25:56;29.98;;;12.38;;
29352;SDS011;16344;50.364;8.944;2023-03-01T11:28:24;23.48;;;12.10;;
29352;SDS011;16344;50.364;8.944;2023-03-01T11:31:00;28.95;;;13.70;;
29352;SDS011;16344;50.364;8.944;2023-03-01T11:38:55;30.65;;;12.35;;
29352;SDS011;16344;50.364;8.944;2023-03-01T11:41:21;23.25;;;11.30;;
29352;SDS011;16344;50.364;8.944;2023-03-01T11:44:05;25.92;;;11.82;;
29352;SDS011;16344;50.364;8.944;2023-03-01T11:46:43;24.77;;;11.55;;
29352;SDS011;16344;50.364;8.944;2023-03-01T11:52:17;21.52;;;10.63;;
29352;SDS011;16344;50.364;8.944;2023-03-01T12:00:25;17.95;;;9.77;;
29352;SDS011;16344;50.364;8.944;2023-03-01T12:06:10;20.55;;;11.07;;
29352;SDS011;16344;50.364;8.944;2023-03-01T12:14:52;18.85;;;9.73;;
29352;SDS011;16344;50.364;8.944;2023-03-01T12:23:16;23.35;;;10.13;;
29352;SDS011;16344;50.364;8.944;2023-03-01T12:50:18;21.67;;;9.73;;
29352;SDS011;16344;50.364;8.944;2023-03-01T12:52:49;18.40;;;9.98;;
29352;SDS011;16344;50.364;8.944;2023-03-01T12:55:23;22.00;;;10.40;;
29352;SDS011;16344;50.364;8.944;2023-03-01T13:03:15;23.50;;;11.45;;
29352;SDS011;16344;50.364;8.944;2023-03-01T13:08:56;21.83;;;9.80;;
29352;SDS011;16344;50.364;8.944;2023-03-01T13:11:29;20.85;;;10.80;;
29352;SDS011;16344;50.364;8.944;2023-03-01T13:16:46;22.63;;;11.77;;
29352;SDS011;16344;50.364;8.944;2023-03-01T13:19:26;22.60;;;10.82;;
29352;SDS011;16344;50.364;8.944;2023-03-01T13:22:01;27.67;;;11.82;;
29352;SDS011;16344;50.364;8.944;2023-03-01T13:25:00;23.77;;;10.63;;
29352;SDS011;16344;50.364;8.944;2023-03-01T13:27:47;22.48;;;12.05;;
29352;SDS011;16344;50.364;8.944;2023-03-01T13:35:52;22.13;;;11.98;;
29352;SDS011;16344;50.364;8.944;2023-03-01T13:41:11;31.55;;;13.85;;
29352;SDS011;16344;50.364;8.944;2023-03-01T13:43:38;23.92;;;11.82;;
29352;SDS011;16344;50.364;8.944;2023-03-01T13:46:11;27.50;;;11.30;;
29352;SDS011;16344;50.364;8.944;2023-03-01T13:48:50;27.40;;;13.68;;
29352;SDS011;16344;50.364;8.944;2023-03-01T13:51:20;21.80;;;12.50;;
29352;SDS011;16344;50.364;8.944;2023-03-01T13:53:52;24.77;;;11.50;;
29352;SDS011;16344;50.364;8.944;2023-03-01T13:56:24;28.02;;;11.75;;
29352;SDS011;16344;50.364;8.944;2023-03-01T13:59:05;23.37;;;11.57;;
29352;SDS011;16344;50.364;8.944;2023-03-01T14:01:37;24.13;;;11.52;;
29352;SDS011;16344;50.364;8.944;2023-03-01T14:04:03;22.73;;;12.10;;
29352;SDS011;16344;50.364;8.944;2023-03-01T14:06:43;33.70;;;12.85;;
29352;SDS011;16344;50.364;8.944;2023-03-01T14:09:10;34.75;;;13.35;;
29352;SDS011;16344;50.364;8.944;2023-03-01T14:12:01;27.45;;;12.15;;
29352;SDS011;16344;50.364;8.944;2023-03-01T14:17:20;28.52;;;12.88;;
29352;SDS011;16344;50.364;8.944;2023-03-01T14:20:14;31.77;;;12.45;;
29352;SDS011;16344;50.364;8.944;2023-03-01T14:27:45;28.90;;;13.52;;
29352;SDS011;16344;50.364;8.944;2023-03-01T14:30:20;27.60;;;12.82;;
29352;SDS011;16344;50.364;8.944;2023-03-01T14:35:22;27.35;;;11.60;;
29352;SDS011;16344;50.364;8.944;2023-03-01T14:37:59;26.83;;;11.45;;
29352;SDS011;16344;50.364;8.944;2023-03-01T14:40:26;30.08;;;12.13;;
29352;SDS011;16344;50.364;8.944;2023-03-01T14:42:55;24.08;;;11.48;;
29352;SDS011;16344;50.364;8.944;2023-03-01T14:45:27;25.15;;;11.25;;
29352;SDS011;16344;50.364;8.944;2023-03-01T14:47:55;20.65;;;10.90;;
29352;SDS011;16344;50.364;8.944;2023-03-01T14:50:26;23.98;;;11.40;;
29352;SDS011;16344;50.364;8.944;2023-03-01T14:52:55;26.85;;;11.98;;
29352;SDS011;16344;50.364;8.944;2023-03-01T14:55:29;23.60;;;12.10;;
29352;SDS011;16344;50.364;8.944;2023-03-01T14:57:57;25.20;;;11.70;;
29352;SDS011;16344;50.364;8.944;2023-03-01T15:00:24;28.45;;;11.07;;
29352;SDS011;16344;50.364;8.944;2023-03-01T15:02:53;44.85;;;14.93;;
29352;SDS011;16344;50.364;8.944;2023-03-01T15:05:23;23.40;;;12.73;;
29352;SDS011;16344;50.364;8.944;2023-03-01T15:07:52;23.42;;;12.23;;
29352;SDS011;16344;50.364;8.944;2023-03-01T15:10:22;31.67;;;11.30;;
29352;SDS011;16344;50.364;8.944;2023-03-01T15:12:50;31.05;;;13.65;;
29352;SDS011;16344;50.364;8.944;2023-03-01T15:15:26;27.17;;;12.70;;
29352;SDS011;16344;50.364;8.944;2023-03-01T15:20:50;35.03;;;13.57;;
29352;SDS011;16344;50.364;8.944;2023-03-01T15:25:50;24.95;;;12.40;;
29352;SDS011;16344;50.364;8.944;2023-03-01T15:28:21;27.58;;;13.50;;
29352;SDS011;16344;50.364;8.944;2023-03-01T15:31:00;25.83;;;12.57;;
29352;SDS011;16344;50.364;8.944;2023-03-01T15:33:43;28.67;;;12.68;;
29352;SDS011;16344;50.364;8.944;2023-03-01T15:38:57;26.20;;;13.32;;
29352;SDS011;16344;50.364;8.944;2023-03-01T15:41:38;26.15;;;12.07;;
29352;SDS011;16344;50.364;8.944;2023-03-01T15:44:15;21.55;;;11.43;;
29352;SDS011;16344;50.364;8.944;2023-03-01T15:46:51;24.60;;;10.55;;
29352;SDS011;16344;50.364;8.944;2023-03-01T15:49:24;30.38;;;13.70;;
29352;SDS011;16344;50.364;8.944;2023-03-01T15:51:58;27.33;;;12.80;;
29352;SDS011;16344;50.364;8.944;2023-03-01T15:54:24;24.83;;;12.90;;
29352;SDS011;16344;50.364;8.944;2023-03-01T15:56:51;27.45;;;13.20;;
29352;SDS011;16344;50.364;8.944;2023-03-01T15:59:17;28.58;;;12.57;;
29352;SDS011;16344;50.364;8.944;2023-03-01T16:01:43;27.50;;;12.57;;
29352;SDS011;16344;50.364;8.944;2023-03-01T16:04:13;22.13;;;10.98;;
29352;SDS011;16344;50.364;8.944;2023-03-01T16:06:54;28.60;;;12.85;;
29352;SDS011;16344;50.364;8.944;2023-03-01T16:09:21;25.98;;;11.70;;
29352;SDS011;16344;50.364;8.944;2023-03-01T16:11:48;30.08;;;12.90;;
29352;SDS011;16344;50.364;8.944;2023-03-01T16:14:14;35.90;;;12.85;;
29352;SDS011;16344;50.364;8.944;2023-03-01T16:16:41;26.60;;;11.63;;
29352;SDS011;16344;50.364;8.944;2023-03-01T16:19:06;28.02;;;12.25;;
29352;SDS011;16344;50.364;8.944;2023-03-01T16:21:32;29.15;;;13.43;;
29352;SDS011;16344;50.364;8.944;2023-03-01T16:23:57;25.50;;;12.60;;
29352;SDS011;16344;50.364;8.944;2023-03-01T16:26:23;25.85;;;13.35;;
29352;SDS011;16344;50.364;8.944;2023-03-01T16:28:49;31.38;;;13.13;;
29352;SDS011;16344;50.364;8.944;2023-03-01T16:31:17;26.85;;;13.15;;
29352;SDS011;16344;50.364;8.944;2023-03-01T16:33:44;29.75;;;13.73;;
29352;SDS011;16344;50.364;8.944;2023-03-01T16:36:14;23.63;;;12.85;;
29352;SDS011;16344;50.364;8.944;2023-03-01T16:38:40;27.48;;;13.65;;